Terminal Aerodrome Forecast
Issued by NWS

Home | Current Version | Previous Version | Text Only | Print | Product List | Glossary On
Versions: 1 2 3 4 5 6 7 8 9 10 11 12 13 14 15 16 17 18 19 20 21 22 23 24 25 26 27 28 29 30 31 32 33 34 35 36
000
FTUS45 KPSR 190500
TAFSDL
TAF
KSDL 190520Z 1906/2006 VRB03KT P6SM BKN090
     FM191600 VRB03KT P6SM FEW100
     FM192000 22006KT P6SM FEW100
     FM200300 VRB03KT P6SM SCT100=

USA.gov is the U.S. government's official web portal to all federal, state and local government web resources and services.